New Carlisle, IN

4:32 PM EST on January 25, 2015 (GMT -0500)
Bendix Woods County Park | Change Station
CLOSE
Current Station
Personal Weather Station
Location: New Carlisle, IN
Elevation: 835 ft
Nearby Weather Stations

Elev 835 ft 41.66 °N, 86.51 °W | Updated 6 seconds ago

Snow
Snow
26.0 °F
Feels Like 20 °F
N
5.0
Wind Variable Wind from NNE
Gusts 9.0 mph

Today
High -- | Low -- °F
--% Chance of Precip.
Yesterday
High -- | Low -- °F
Precip. -- in
8:04 AM 5:52 PM
Waxing Crescent, 36% visible
Pressure 29.82 in
Visibility 1.5 miles
Clouds Mostly Cloudy 1400 ft
Mostly Cloudy 1800 ft
Overcast 3000 ft
Windchill 20 °F
Dew Point 24 °F
Humidity 94%
Rainfall 0.02 in
Snow Depth Not available.
UV 0 out of 12
Pollen .10 out of 12
Air Quality Not available.
Flu Activity Not available.
SPECI KSBN 252057Z 05006KT 1 1/2SM -SN BR BKN014 BKN018 OVC030 M02/M04 A2982 RMK AO2 P0001 T10221044

More Conditions Fewer Conditions

Pressure 29.82 in
Visibility 1.5 miles
Clouds Mostly Cloudy 1400 ft
Mostly Cloudy 1800 ft
Overcast 3000 ft
Windchill 20 °F
Dew Point 24 °F
Humidity 94%
Rainfall 0.02 in
Snow Depth Not available.
UV 0 out of 12
Pollen .10 out of 12
Air Quality Not available.
Flu Activity Not available.
SPECI KSBN 252057Z 05006KT 1 1/2SM -SN BR BKN014 BKN018 OVC030 M02/M04 A2982 RMK AO2 P0001 T10221044

More Conditions Fewer Conditions

10-Day Weather Forecast

Almanac

Astronomy

Jan. 25, 2015 Rise Set
Actual Time
Civil Twilight
Nautical Twilight
Astronomical Twilight
Moon
Length of Visible Light
Length of Day
Tomorrow will be .
, % of the Moon is Illuminated

Today's Extremes

State Highs State Lows

Community

WunderPhotos

Upload Photos

1,790,058 photos uploaded!

WunderBlogs® & News

Nearby

Air Quality

  Air Quality AQ Index Pollutant
Not available.

Snow Depth

Station Depth Elevation

Earthquake Activity

City Distance Mag. Time & Date
Minimum magnitude displayed is 2.5.

Coastal Water Temperatures

Place Temperature

Nearby Weather Stations